createdAt,value
2016-11-20T00:00:40.291Z,99.99
2016-11-20T00:01:40.586Z,99.99
2016-11-20T00:02:40.253Z,99.99
2016-11-20T00:03:40.547Z,99.99
2016-11-20T00:04:40.219Z,99.99
2016-11-20T00:05:40.197Z,99.99
2016-11-20T00:06:40.176Z,99.99
2016-11-20T00:07:40.158Z,99.99
2016-11-20T00:08:40.139Z,99.99
2016-11-20T00:09:40.120Z,99.99
2016-11-20T00:10:40.097Z,99.99
2016-11-20T00:11:40.085Z,99.99
2016-11-20T00:12:40.062Z,99.99
2016-11-20T00:13:40.040Z,99.99
2016-11-20T00:14:40.028Z,99.99
2016-11-20T00:15:40.005Z,99.99
2016-11-20T00:16:39.988Z,99.99
2016-11-20T00:17:39.970Z,99.99
2016-11-20T00:18:39.951Z,99.99
2016-11-20T00:19:39.928Z,99.99
2016-11-20T00:20:39.919Z,99.99
2016-11-20T00:21:39.893Z,99.99
2016-11-20T00:22:39.873Z,99.99
2016-11-20T00:23:39.858Z,99.99
2016-11-20T00:24:39.840Z,99.99
2016-11-20T00:25:39.814Z,99.99
2016-11-20T00:26:39.802Z,99.99
2016-11-20T00:27:39.781Z,99.99
2016-11-20T00:28:40.074Z,99.99
2016-11-20T00:29:39.742Z,99.99
2016-11-20T00:30:39.720Z,99.99
2016-11-20T00:31:39.707Z,99.99
2016-11-20T00:32:39.687Z,99.99
2016-11-20T00:33:39.663Z,99.99
2016-11-20T00:34:39.647Z,99.99
2016-11-20T00:35:39.944Z,99.99
2016-11-20T00:36:39.607Z,99.99
2016-11-20T00:37:39.588Z,99.99
2016-11-20T00:38:39.573Z,99.99
2016-11-20T00:39:39.560Z,99.99
2016-11-20T00:40:39.534Z,99.99
2016-11-20T00:41:39.518Z,99.99
2016-11-20T00:42:39.498Z,99.99
2016-11-20T00:43:39.476Z,99.99
2016-11-20T00:44:39.459Z,99.99
2016-11-20T00:45:39.441Z,99.99
2016-11-20T00:46:39.422Z,99.99
2016-11-20T00:47:39.404Z,99.99
2016-11-20T00:48:39.383Z,99.99
2016-11-20T00:49:39.361Z,99.99
2016-11-20T00:50:39.346Z,99.99
2016-11-20T00:51:39.324Z,99.99
2016-11-20T00:52:39.306Z,99.99
2016-11-20T00:53:39.295Z,99.99
2016-11-20T00:54:39.269Z,99.99
2016-11-20T00:55:39.562Z,99.99
2016-11-20T00:56:39.264Z,99.99
2016-11-20T00:57:39.217Z,99.99
2016-11-20T00:58:39.193Z,99.99
2016-11-20T00:59:39.181Z,99.99
2016-11-20T01:00:39.159Z,99.99
2016-11-20T01:01:39.137Z,99.99
2016-11-20T01:02:39.121Z,99.99
2016-11-20T01:03:39.101Z,99.99
2016-11-20T01:04:39.081Z,99.99
2016-11-20T01:05:39.060Z,99.99
2016-11-20T01:06:39.044Z,99.99
2016-11-20T01:07:39.024Z,99.99
2016-11-20T01:08:39.004Z,99.99
2016-11-20T01:09:38.987Z,99.99
2016-11-20T01:10:38.964Z,99.99
2016-11-20T01:11:38.949Z,99.99
2016-11-20T01:12:38.931Z,99.99
2016-11-20T01:13:38.915Z,99.99
2016-11-20T01:14:38.893Z,99.99
2016-11-20T01:15:38.875Z,99.99
2016-11-20T01:16:38.856Z,99.99
2016-11-20T01:17:39.148Z,99.99
2016-11-20T01:18:38.816Z,99.99
2016-11-20T01:19:38.797Z,99.99
2016-11-20T01:20:38.782Z,99.99
2016-11-20T01:21:38.758Z,99.99
2016-11-20T01:22:38.744Z,99.99
2016-11-20T01:23:38.725Z,99.99
2016-11-20T01:24:38.708Z,99.99
2016-11-20T01:25:38.687Z,99.99
2016-11-20T01:26:38.668Z,99.99
2016-11-20T01:27:38.648Z,99.99
2016-11-20T01:28:38.629Z,99.99
2016-11-20T01:29:38.612Z,99.99
2016-11-20T01:30:38.592Z,99.99
2016-11-20T01:31:38.576Z,99.99
2016-11-20T01:32:38.870Z,99.99
2016-11-20T01:33:38.531Z,99.99
2016-11-20T01:34:38.520Z,99.99
2016-11-20T01:35:38.498Z,99.99
2016-11-20T01:36:38.477Z,99.99
2016-11-20T01:37:38.459Z,99.99
2016-11-20T01:38:38.439Z,99.99
2016-11-20T01:39:38.426Z,99.99
2016-11-20T01:40:38.656Z,99.99
2016-11-20T01:41:38.698Z,99.99
2016-11-20T01:42:38.366Z,99.99
2016-11-20T01:43:38.349Z,99.99
2016-11-20T01:44:38.331Z,99.99
2016-11-20T01:45:38.312Z,99.99
2016-11-20T01:46:38.292Z,99.99
2016-11-20T01:47:38.276Z,99.99
2016-11-20T01:48:38.580Z,99.99
2016-11-20T01:49:38.235Z,99.99
2016-11-20T01:50:38.219Z,99.99
2016-11-20T01:51:38.196Z,99.99
2016-11-20T01:52:38.181Z,99.99
2016-11-20T01:53:38.161Z,99.99
2016-11-20T01:54:38.150Z,99.99
2016-11-20T01:55:38.129Z,99.99
2016-11-20T01:56:38.110Z,99.99
2016-11-20T01:57:38.119Z,99.99
2016-11-20T01:58:38.073Z,99.99
2016-11-20T01:59:38.052Z,99.99
2016-11-20T02:00:38.082Z,99.99
2016-11-20T02:01:38.014Z,99.99
2016-11-20T02:02:38.003Z,99.99
2016-11-20T02:03:37.983Z,99.99
2016-11-20T02:04:37.965Z,99.99
2016-11-20T02:05:37.943Z,99.99
2016-11-20T02:06:37.922Z,99.99
2016-11-20T02:07:37.909Z,99.99
2016-11-20T02:08:37.891Z,99.99
2016-11-20T02:09:37.879Z,99.99
2016-11-20T02:10:37.848Z,99.99
2016-11-20T02:11:37.829Z,99.99
2016-11-20T02:12:38.127Z,99.99
2016-11-20T02:13:37.791Z,99.99
2016-11-20T02:14:37.778Z,99.99
2016-11-20T02:15:37.756Z,99.99
2016-11-20T02:16:37.766Z,99.99
2016-11-20T02:17:37.718Z,99.99
2016-11-20T02:18:38.018Z,99.99
2016-11-20T02:19:37.687Z,99.99
2016-11-20T02:20:37.669Z,99.99
2016-11-20T02:21:37.648Z,99.99
2016-11-20T02:22:37.627Z,99.99
2016-11-20T02:23:37.612Z,99.99
2016-11-20T02:24:37.593Z,99.99
2016-11-20T02:25:37.576Z,99.99
2016-11-20T02:26:37.556Z,99.99
2016-11-20T02:27:37.538Z,99.99
2016-11-20T02:28:37.520Z,99.99
2016-11-20T02:29:37.501Z,99.99
2016-11-20T02:30:37.797Z,99.99
2016-11-20T02:31:37.467Z,99.99
2016-11-20T02:32:37.446Z,99.99
2016-11-20T02:33:37.426Z,99.99
2016-11-20T02:34:37.406Z,99.99
2016-11-20T02:35:37.393Z,99.99
2016-11-20T02:36:37.370Z,99.99
2016-11-20T02:37:37.354Z,99.99
2016-11-20T02:38:37.337Z,99.99
2016-11-20T02:39:37.317Z,99.99
2016-11-20T02:40:37.612Z,99.99
2016-11-20T02:41:37.288Z,99.99
2016-11-20T02:42:37.264Z,99.99
2016-11-20T02:43:37.557Z,99.99
2016-11-20T02:44:37.226Z,99.99
2016-11-20T02:45:37.207Z,99.99
2016-11-20T02:46:37.187Z,99.99
2016-11-20T02:47:37.178Z,99.99
2016-11-20T02:48:37.151Z,99.99
2016-11-20T02:49:37.136Z,99.99
2016-11-20T02:50:37.120Z,99.99
2016-11-20T02:51:37.095Z,99.99
2016-11-20T02:52:37.080Z,99.99
2016-11-20T02:53:37.062Z,99.99
2016-11-20T02:54:37.044Z,99.99
2016-11-20T02:55:37.024Z,99.99
2016-11-20T02:56:37.007Z,99.99
2016-11-20T02:57:36.990Z,99.99
2016-11-20T02:58:36.965Z,99.99
2016-11-20T02:59:36.973Z,99.99
2016-11-20T03:00:36.932Z,99.99
2016-11-20T03:01:36.914Z,99.99
2016-11-20T03:02:36.899Z,99.99
2016-11-20T03:03:36.878Z,99.99
2016-11-20T03:04:36.859Z,99.99
2016-11-20T03:05:36.838Z,99.99
2016-11-20T03:06:36.824Z,99.99
2016-11-20T03:07:36.800Z,99.99
2016-11-20T03:08:36.784Z,99.99
2016-11-20T03:09:36.763Z,99.99
2016-11-20T03:10:36.749Z,99.99
2016-11-20T03:11:37.046Z,99.99
2016-11-20T03:12:36.716Z,99.99
2016-11-20T03:13:36.694Z,99.99
2016-11-20T03:14:36.681Z,99.99
2016-11-20T03:15:36.658Z,99.99
2016-11-20T03:16:36.642Z,99.99
2016-11-20T03:17:36.619Z,99.99
2016-11-20T03:18:36.604Z,99.99
2016-11-20T03:19:36.583Z,99.99
2016-11-20T03:20:36.566Z,99.99
2016-11-20T03:21:36.547Z,99.99
2016-11-20T03:22:36.527Z,99.99
2016-11-20T03:23:36.510Z,99.99
2016-11-20T03:24:36.494Z,99.99
2016-11-20T03:25:36.474Z,99.99
2016-11-20T03:26:36.456Z,99.99
2016-11-20T03:27:36.748Z,99.99
2016-11-20T03:28:36.422Z,99.99
2016-11-20T03:29:36.402Z,99.99
2016-11-20T03:30:36.379Z,99.99
2016-11-20T03:31:36.368Z,99.99
2016-11-20T03:32:36.345Z,99.99
2016-11-20T03:33:36.329Z,99.99
2016-11-20T03:34:36.307Z,99.99
2016-11-20T03:35:36.290Z,99.99
2016-11-20T03:36:36.273Z,99.99
2016-11-20T03:37:36.254Z,99.99
2016-11-20T03:38:36.267Z,99.99
2016-11-20T03:39:36.224Z,99.99
2016-11-20T03:40:36.403Z,99.99
2016-11-20T03:41:36.179Z,99.99
2016-11-20T03:42:36.161Z,99.99
2016-11-20T03:43:36.142Z,99.99
2016-11-20T03:44:36.445Z,99.99
2016-11-20T03:45:36.105Z,99.99
2016-11-20T03:46:36.086Z,99.99
2016-11-20T03:47:36.069Z,99.99
2016-11-20T03:48:36.053Z,99.99
2016-11-20T03:49:36.030Z,99.99
2016-11-20T03:50:36.332Z,99.99
2016-11-20T03:51:36.336Z,99.99
2016-11-20T03:52:35.986Z,99.99
2016-11-20T03:53:35.959Z,99.99
2016-11-20T03:54:35.942Z,99.99
2016-11-20T03:55:35.921Z,99.99
2016-11-20T03:56:35.902Z,99.99
2016-11-20T03:57:35.934Z,99.99
2016-11-20T03:58:35.868Z,99.99
2016-11-20T03:59:35.851Z,99.99
2016-11-20T04:00:35.830Z,99.99
2016-11-20T04:01:35.812Z,99.99
2016-11-20T04:02:35.793Z,99.99
2016-11-20T04:03:35.772Z,99.99
2016-11-20T04:04:35.757Z,99.99
2016-11-20T04:05:35.736Z,99.99
2016-11-20T04:06:36.031Z,99.99
2016-11-20T04:07:35.701Z,99.99
2016-11-20T04:08:35.679Z,99.99
2016-11-20T04:09:35.665Z,99.99
2016-11-20T04:10:35.644Z,99.99
2016-11-20T04:11:35.627Z,99.99
2016-11-20T04:12:35.607Z,99.99
2016-11-20T04:13:35.587Z,99.99
2016-11-20T04:14:35.569Z,99.99
2016-11-20T04:15:35.549Z,99.99
2016-11-20T04:16:35.847Z,99.99
2016-11-20T04:17:35.512Z,99.99
2016-11-20T04:18:35.495Z,99.99
2016-11-20T04:19:35.477Z,99.99
2016-11-20T04:20:35.458Z,99.99
2016-11-20T04:21:35.440Z,99.99
2016-11-20T04:22:35.420Z,99.99
2016-11-20T04:23:35.717Z,99.99
2016-11-20T04:24:35.382Z,99.99
2016-11-20T04:25:35.365Z,99.99
2016-11-20T04:26:35.346Z,99.99
2016-11-20T04:27:35.331Z,99.99
2016-11-20T04:28:35.309Z,99.99
2016-11-20T04:29:35.613Z,99.99
2016-11-20T04:30:35.273Z,99.99
2016-11-20T04:31:35.255Z,99.99
2016-11-20T04:32:35.238Z,99.99
2016-11-20T04:33:35.219Z,99.99
2016-11-20T04:34:35.197Z,99.99
2016-11-20T04:35:35.181Z,99.99
2016-11-20T04:36:35.477Z,99.99
2016-11-20T04:37:35.151Z,99.99
2016-11-20T04:38:35.131Z,99.99
2016-11-20T04:39:35.109Z,99.99
2016-11-20T04:40:35.092Z,99.99
2016-11-20T04:41:35.069Z,99.99
2016-11-20T04:42:35.054Z,99.99
2016-11-20T04:43:35.036Z,99.99
2016-11-20T04:44:35.014Z,99.99
2016-11-20T04:45:34.999Z,99.99
2016-11-20T04:46:34.979Z,99.99
2016-11-20T04:47:34.959Z,99.99
2016-11-20T04:48:34.949Z,99.99
2016-11-20T04:49:34.928Z,99.99
2016-11-20T04:50:34.905Z,99.99
2016-11-20T04:51:34.886Z,99.99
2016-11-20T04:52:34.871Z,99.99
2016-11-20T04:53:34.856Z,99.99
2016-11-20T04:54:34.830Z,99.99
2016-11-20T04:55:34.827Z,99.99
2016-11-20T04:56:34.792Z,99.99
2016-11-20T04:57:34.777Z,99.99
2016-11-20T04:58:34.757Z,99.99
2016-11-20T04:59:34.741Z,99.99
2016-11-20T05:00:34.720Z,99.99
2016-11-20T05:01:34.704Z,99.99
2016-11-20T05:02:34.693Z,99.99
2016-11-20T05:03:34.678Z,99.99
2016-11-20T05:04:34.652Z,99.99
2016-11-20T05:05:34.630Z,99.99
2016-11-20T05:06:34.616Z,99.99
2016-11-20T05:07:34.915Z,99.99
2016-11-20T05:08:34.577Z,99.99
2016-11-20T05:09:34.558Z,99.99
2016-11-20T05:10:34.547Z,99.99
2016-11-20T05:11:34.518Z,99.99
2016-11-20T05:12:34.500Z,99.99
2016-11-20T05:13:34.480Z,99.99
2016-11-20T05:14:34.465Z,99.99
2016-11-20T05:15:34.445Z,99.99
2016-11-20T05:16:34.429Z,99.99
2016-11-20T05:17:34.407Z,99.99
2016-11-20T05:18:34.706Z,99.99
2016-11-20T05:19:34.374Z,99.99
2016-11-20T05:20:34.354Z,99.99
2016-11-20T05:21:34.650Z,99.99
2016-11-20T05:22:34.318Z,99.99
2016-11-20T05:23:34.330Z,99.99
2016-11-20T05:24:34.285Z,99.99
2016-11-20T05:25:34.266Z,99.99
2016-11-20T05:26:34.250Z,99.99
2016-11-20T05:27:34.230Z,99.99
2016-11-20T05:28:34.213Z,99.99
2016-11-20T05:29:34.195Z,99.99
2016-11-20T05:30:34.173Z,99.99
2016-11-20T05:31:34.154Z,99.99
2016-11-20T05:32:34.135Z,99.99
2016-11-20T05:33:34.119Z,99.99
2016-11-20T05:34:34.130Z,99.99
2016-11-20T05:35:34.078Z,99.99
2016-11-20T05:36:34.067Z,99.99
2016-11-20T05:37:34.046Z,99.99
2016-11-20T05:38:34.028Z,99.99
2016-11-20T05:39:34.005Z,99.99
2016-11-20T05:40:34.398Z,99.99
2016-11-20T05:41:33.973Z,99.99
2016-11-20T05:42:33.960Z,99.99
2016-11-20T05:43:33.936Z,99.99
2016-11-20T05:44:33.919Z,99.99
2016-11-20T05:45:33.920Z,99.99
2016-11-20T05:46:33.880Z,99.99
2016-11-20T05:47:33.920Z,99.99
2016-11-20T05:48:33.847Z,99.26
2016-11-20T05:49:33.828Z,98.93
2016-11-20T05:50:33.810Z,98.79
2016-11-20T05:51:33.792Z,98.64
2016-11-20T05:52:33.775Z,98.79
2016-11-20T05:53:33.755Z,99.3
2016-11-20T05:54:33.738Z,98.26
2016-11-20T05:55:33.722Z,97.92
2016-11-20T05:56:33.707Z,97.6
2016-11-20T05:57:33.684Z,97.97
2016-11-20T05:58:33.978Z,97.74
2016-11-20T05:59:33.965Z,98.4
2016-11-20T06:00:33.629Z,98.26
2016-11-20T06:01:33.619Z,98.55
2016-11-20T06:02:33.590Z,97.31
2016-11-20T06:03:33.574Z,96.84
2016-11-20T06:04:33.564Z,96.74
2016-11-20T06:05:33.541Z,96.84
2016-11-20T06:06:33.521Z,96.55
2016-11-20T06:07:33.501Z,96.36
2016-11-20T06:08:33.484Z,96.36
2016-11-20T06:09:33.501Z,95.51
2016-11-20T06:10:33.452Z,95.51
2016-11-20T06:11:33.431Z,95.7
2016-11-20T06:12:33.418Z,95.22
2016-11-20T06:13:33.445Z,94.93
2016-11-20T06:14:33.382Z,94.93
2016-11-20T06:15:33.361Z,94.93
2016-11-20T06:16:33.657Z,94.37
2016-11-20T06:17:33.324Z,94.08
2016-11-20T06:18:33.309Z,93.23
2016-11-20T06:19:33.290Z,94.37
2016-11-20T06:20:33.274Z,94.08
2016-11-20T06:21:33.255Z,93.32
2016-11-20T06:22:33.236Z,93.32
2016-11-20T06:23:33.226Z,92.94
2016-11-20T06:24:33.202Z,93.23
2016-11-20T06:25:33.183Z,93.51
2016-11-20T06:26:33.176Z,92.56
2016-11-20T06:27:33.472Z,93.51
2016-11-20T06:28:33.136Z,92.66
2016-11-20T06:29:33.110Z,92.18
2016-11-20T06:30:33.095Z,92.08
2016-11-20T06:31:33.080Z,91.33
2016-11-20T06:32:33.060Z,90.66
2016-11-20T06:33:33.041Z,90.37
2016-11-20T06:34:33.020Z,90.66
2016-11-20T06:35:33.003Z,90.28
2016-11-20T06:36:33.300Z,90.09
2016-11-20T06:37:32.968Z,90.28
2016-11-20T06:38:32.951Z,90.37
2016-11-20T06:39:32.935Z,89.8
2016-11-20T06:40:32.917Z,89.71
2016-11-20T06:41:32.894Z,89.23
2016-11-20T06:42:32.881Z,88.57
2016-11-20T06:43:32.863Z,88.85
2016-11-20T06:44:32.844Z,88.57
2016-11-20T06:45:32.825Z,88.28
2016-11-20T06:46:32.808Z,88.47
2016-11-20T06:47:33.108Z,88
2016-11-20T06:48:32.778Z,87.9
2016-11-20T06:49:32.755Z,87.14
2016-11-20T06:50:32.753Z,87.38
2016-11-20T06:51:32.722Z,86.57
2016-11-20T06:52:32.702Z,85.95
2016-11-20T06:53:32.684Z,85.86
2016-11-20T06:54:32.668Z,85.95
2016-11-20T06:55:32.648Z,85.76
2016-11-20T06:56:32.633Z,85.47
2016-11-20T06:57:32.618Z,84.81
2016-11-20T06:58:32.596Z,84.72
2016-11-20T06:59:32.580Z,85.19
2016-11-20T07:00:32.610Z,85.19
2016-11-20T07:01:32.548Z,84.33
2016-11-20T07:02:32.523Z,84.52
2016-11-20T07:03:32.507Z,83.39
2016-11-20T07:04:32.495Z,83.95
2016-11-20T07:05:32.481Z,83.48
2016-11-20T07:06:32.461Z,83.19
2016-11-20T07:07:32.438Z,83.29
2016-11-20T07:08:32.783Z,83
2016-11-20T07:09:32.404Z,82.62
2016-11-20T07:10:32.390Z,82.43
2016-11-20T07:11:32.371Z,82.43
2016-11-20T07:12:32.667Z,81.67
2016-11-20T07:13:32.344Z,82.15
2016-11-20T07:14:32.329Z,81.86
2016-11-20T07:15:32.298Z,81.24
2016-11-20T07:16:32.280Z,80.95
2016-11-20T07:17:32.264Z,81.24
2016-11-20T07:18:32.251Z,81.58
2016-11-20T07:19:32.228Z,81.48
2016-11-20T07:20:32.213Z,81.01
2016-11-20T07:21:32.245Z,81.33
2016-11-20T07:22:32.175Z,81.9
2016-11-20T07:23:32.162Z,81.24
2016-11-20T07:24:32.144Z,81.81
2016-11-20T07:25:32.129Z,81.33
2016-11-20T07:26:32.109Z,81.05
2016-11-20T07:27:32.090Z,81.43
2016-11-20T07:28:32.076Z,81.33
2016-11-20T07:29:32.061Z,82.57
2016-11-20T07:30:32.040Z,82.38
2016-11-20T07:31:32.023Z,81.77
2016-11-20T07:32:32.018Z,81.71
2016-11-20T07:33:31.989Z,81.52
2016-11-20T07:34:31.972Z,81.24
2016-11-20T07:35:32.267Z,82.28
2016-11-20T07:36:31.939Z,81.71
2016-11-20T07:37:32.235Z,81.05
2016-11-20T07:38:31.905Z,81.24
2016-11-20T07:39:31.883Z,81.62
2016-11-20T07:40:31.867Z,81.9
2016-11-20T07:41:31.851Z,81.81
2016-11-20T07:42:31.831Z,81.81
2016-11-20T07:43:31.814Z,81.62
2016-11-20T07:44:31.797Z,81.71
2016-11-20T07:45:31.807Z,82.19
2016-11-20T07:46:31.769Z,81.81
2016-11-20T07:47:31.748Z,81.33
2016-11-20T07:48:32.049Z,81.71
2016-11-20T07:49:31.720Z,82.48
2016-11-20T07:50:31.696Z,83.14
2016-11-20T07:51:31.676Z,82.67
2016-11-20T07:52:31.660Z,82.67
2016-11-20T07:53:31.651Z,83.52
2016-11-20T07:54:31.939Z,82.95
2016-11-20T07:55:31.615Z,83.04
2016-11-20T07:56:31.597Z,82.57
2016-11-20T07:57:31.575Z,82.48
2016-11-20T07:58:31.560Z,81.9
2016-11-20T07:59:31.546Z,82.19
2016-11-20T08:00:31.525Z,81.33
2016-11-20T08:01:31.506Z,82.09
2016-11-20T08:02:31.808Z,82.48
2016-11-20T08:03:31.474Z,82.28
2016-11-20T08:04:31.461Z,82.38
2016-11-20T08:05:31.440Z,81.81
2016-11-20T08:06:31.426Z,82.19
2016-11-20T08:07:31.405Z,81.24
2016-11-20T08:08:31.388Z,80.66
2016-11-20T08:09:31.379Z,81.37
2016-11-20T08:10:31.357Z,81.14
2016-11-20T08:11:31.339Z,81.37
2016-11-20T08:12:31.322Z,81.47
2016-11-20T08:13:31.305Z,81.56
2016-11-20T08:14:31.288Z,81.95
2016-11-20T08:15:31.271Z,82.42
2016-11-20T08:16:31.253Z,82.51
2016-11-20T08:17:31.241Z,81.18
2016-11-20T08:18:31.227Z,81.28
2016-11-20T08:19:31.204Z,81.28
2016-11-20T08:20:31.186Z,81.09
2016-11-20T08:21:31.170Z,80.99
2016-11-20T08:22:31.154Z,81.09
2016-11-20T08:23:31.135Z,81.28
2016-11-20T08:24:31.121Z,80.9
2016-11-20T08:25:31.101Z,82.51
2016-11-20T08:26:31.088Z,85.56
2016-11-20T08:27:31.389Z,92.03
2016-11-20T08:28:31.056Z,94.79
2016-11-20T08:29:31.345Z,94.93
2016-11-20T08:30:31.018Z,95.79
2016-11-20T08:31:31.008Z,93.41
2016-11-20T08:32:30.983Z,94.27
2016-11-20T08:33:30.966Z,93.23
2016-11-20T08:34:30.950Z,91.8
2016-11-20T08:35:30.942Z,90.75
2016-11-20T08:36:30.921Z,90.08
2016-11-20T08:37:31.213Z,91.94
2016-11-20T08:38:30.883Z,93.84
2016-11-20T08:39:30.872Z,96.08
2016-11-20T08:40:30.849Z,99.99
2016-11-20T08:41:30.834Z,99.99
2016-11-20T08:42:30.818Z,99.99
2016-11-20T08:43:30.799Z,99.99
2016-11-20T08:44:30.778Z,99.99
2016-11-20T08:45:30.765Z,99.99
2016-11-20T08:46:30.744Z,99.99
2016-11-20T08:47:30.727Z,99.99
2016-11-20T08:48:31.023Z,99.99
2016-11-20T08:49:30.698Z,99.99
2016-11-20T08:50:30.674Z,99.99
2016-11-20T08:51:30.661Z,99.99
2016-11-20T08:52:30.641Z,99.99
2016-11-20T08:53:30.627Z,99.99
2016-11-20T08:54:30.604Z,99.99
2016-11-20T08:55:30.900Z,99.99
2016-11-20T08:56:30.572Z,99.99
2016-11-20T08:57:30.550Z,99.99
2016-11-20T08:58:30.863Z,99.99
2016-11-20T08:59:30.516Z,99.99
2016-11-20T09:00:30.499Z,99.99
2016-11-20T09:01:30.483Z,99.99
2016-11-20T09:02:30.464Z,99.99
2016-11-20T09:03:30.456Z,99.99
2016-11-20T09:04:30.425Z,99.99
2016-11-20T09:05:30.405Z,99.99
2016-11-20T09:06:30.701Z,99.99
2016-11-20T09:07:30.684Z,99.99
2016-11-20T09:08:30.355Z,99.99
2016-11-20T09:09:30.340Z,99.99
2016-11-20T09:10:30.322Z,99.99
2016-11-20T09:11:30.306Z,99.99
2016-11-20T09:12:30.279Z,99.99
2016-11-20T09:13:30.581Z,99.99
2016-11-20T09:14:30.256Z,99.99
2016-11-20T09:15:30.230Z,99.99
2016-11-20T09:16:30.211Z,99.99
2016-11-20T09:17:30.188Z,99.99
2016-11-20T09:18:30.169Z,99.99
2016-11-20T09:19:30.154Z,99.99
2016-11-20T09:20:30.133Z,99.99
2016-11-20T09:21:30.122Z,99.99
2016-11-20T09:22:30.099Z,99.99
2016-11-20T09:23:30.392Z,99.99
2016-11-20T09:24:30.060Z,99.99
2016-11-20T09:25:30.041Z,99.99
2016-11-20T09:26:30.024Z,99.99
2016-11-20T09:27:30.005Z,99.99
2016-11-20T09:28:29.984Z,99.99
2016-11-20T09:29:30.284Z,99.99
2016-11-20T09:30:29.949Z,99.99
2016-11-20T09:31:29.933Z,99.99
2016-11-20T09:32:30.235Z,99.99
2016-11-20T09:33:30.222Z,99.99
2016-11-20T09:34:29.880Z,99.99
2016-11-20T09:35:29.865Z,99.99
2016-11-20T09:36:29.841Z,99.99
2016-11-20T09:37:29.825Z,99.99
2016-11-20T09:38:29.809Z,99.99
2016-11-20T09:39:29.791Z,99.99
2016-11-20T09:40:29.774Z,99.99
2016-11-20T09:41:29.974Z,99.99
2016-11-20T09:42:29.737Z,99.99
2016-11-20T09:43:29.719Z,99.99
2016-11-20T09:44:29.705Z,99.99
2016-11-20T09:45:29.689Z,99.99
2016-11-20T09:46:29.671Z,99.99
2016-11-20T09:47:29.654Z,99.99
2016-11-20T09:48:29.655Z,99.99
2016-11-20T09:49:29.621Z,99.99
2016-11-20T09:50:29.609Z,99.99
2016-11-20T09:51:29.644Z,99.99
2016-11-20T09:52:29.568Z,99.99
2016-11-20T09:53:29.555Z,99.99
2016-11-20T09:54:29.536Z,99.99
2016-11-20T09:55:29.524Z,99.99
2016-11-20T09:56:29.505Z,99.99
2016-11-20T09:57:29.492Z,99.99
2016-11-20T09:58:29.478Z,99.99
2016-11-20T09:59:29.459Z,99.99
2016-11-20T10:00:29.445Z,99.99
2016-11-20T10:01:29.423Z,99.99
2016-11-20T10:02:29.409Z,99.99
2016-11-20T10:03:29.393Z,99.99
2016-11-20T10:04:29.380Z,99.99
2016-11-20T10:05:29.365Z,99.99
2016-11-20T10:06:29.345Z,99.99
2016-11-20T10:07:29.329Z,99.99
2016-11-20T10:08:29.314Z,99.99
2016-11-20T10:09:29.297Z,99.99
2016-11-20T10:10:29.283Z,99.99
2016-11-20T10:11:29.268Z,99.99
2016-11-20T10:12:29.248Z,99.99
2016-11-20T10:13:29.268Z,99.99
2016-11-20T10:14:29.540Z,99.99
2016-11-20T10:15:29.206Z,99.99
2016-11-20T10:16:29.187Z,99.99
2016-11-20T10:17:29.167Z,99.99
2016-11-20T10:18:29.159Z,99.99
2016-11-20T10:19:29.142Z,99.99
2016-11-20T10:20:29.125Z,99.99
2016-11-20T10:21:29.104Z,99.99
2016-11-20T10:22:29.099Z,99.99
2016-11-20T10:23:29.082Z,99.65
2016-11-20T10:24:29.110Z,99.46
2016-11-20T10:25:29.044Z,99.99
2016-11-20T10:26:29.025Z,99.99
2016-11-20T10:27:29.011Z,99.99
2016-11-20T10:28:29.312Z,98.51
2016-11-20T10:29:28.991Z,99.27
2016-11-20T10:30:29.015Z,99.99
2016-11-20T10:31:28.960Z,99.84
2016-11-20T10:32:28.944Z,99.37
2016-11-20T10:33:28.922Z,98.89
2016-11-20T10:34:28.911Z,98.7
2016-11-20T10:35:28.900Z,99.65
2016-11-20T10:36:28.880Z,98.41
2016-11-20T10:37:28.864Z,98.79
2016-11-20T10:38:28.851Z,99.08
2016-11-20T10:39:28.833Z,98.79
2016-11-20T10:40:28.818Z,99.99
2016-11-20T10:41:29.120Z,98.79
2016-11-20T10:42:28.793Z,99.99
2016-11-20T10:43:28.771Z,98.89
2016-11-20T10:44:28.758Z,98.6
2016-11-20T10:45:28.744Z,98.32
2016-11-20T10:46:28.728Z,97.75
2016-11-20T10:47:28.718Z,97.36
2016-11-20T10:48:28.699Z,96.03
2016-11-20T10:49:29.000Z,95.51
2016-11-20T10:50:28.669Z,94.27
2016-11-20T10:51:28.969Z,95.51
2016-11-20T10:52:28.635Z,94.56
2016-11-20T10:53:28.619Z,95.89
2016-11-20T10:54:28.613Z,95.41
2016-11-20T10:55:28.596Z,96.46
2016-11-20T10:56:28.577Z,95.89
2016-11-20T10:57:28.562Z,95.98
2016-11-20T10:58:28.548Z,95.51
2016-11-20T10:59:28.541Z,95.12
2016-11-20T11:00:28.518Z,94.46
2016-11-20T11:01:28.499Z,95.32
2016-11-20T11:02:28.488Z,95.12
2016-11-20T11:03:28.473Z,94.65
2016-11-20T11:04:28.456Z,93.51
2016-11-20T11:05:28.442Z,92.36
2016-11-20T11:06:28.426Z,92.74
2016-11-20T11:07:28.412Z,91.07
2016-11-20T11:08:28.398Z,90.59
2016-11-20T11:09:28.378Z,89.83
2016-11-20T11:10:28.368Z,89.93
2016-11-20T11:11:28.356Z,90.5
2016-11-20T11:12:28.339Z,90.5
2016-11-20T11:13:28.326Z,90.41
2016-11-20T11:14:28.312Z,88.78
2016-11-20T11:15:28.298Z,88.16
2016-11-20T11:16:28.289Z,88.83
2016-11-20T11:17:28.585Z,85.25
2016-11-20T11:18:28.261Z,85.25
2016-11-20T11:19:28.244Z,84.77
2016-11-20T11:20:28.232Z,84.48
2016-11-20T11:21:28.228Z,85.3
2016-11-20T11:22:28.206Z,86.2
2016-11-20T11:23:28.194Z,86.54
2016-11-20T11:24:28.188Z,87.3
2016-11-20T11:25:28.168Z,86.73
2016-11-20T11:26:28.157Z,86.92
2016-11-20T11:27:28.145Z,86.73
2016-11-20T11:28:28.140Z,87.59
2016-11-20T11:29:28.483Z,88.35
2016-11-20T11:30:28.106Z,88.83
2016-11-20T11:31:28.092Z,89.12
2016-11-20T11:32:28.081Z,88.73
2016-11-20T11:33:28.066Z,88.64
2016-11-20T11:34:28.051Z,89.02
2016-11-20T11:35:28.046Z,89.78
2016-11-20T11:36:28.041Z,89.31
2016-11-20T11:37:28.014Z,89.12
2016-11-20T11:38:28.523Z,88.45
2016-11-20T11:39:27.995Z,89.12
2016-11-20T11:40:28.024Z,88.35
2016-11-20T11:41:28.481Z,87.63
2016-11-20T11:42:27.949Z,87.82
2016-11-20T11:43:27.941Z,86.77
2016-11-20T11:44:27.926Z,86.87
2016-11-20T11:45:27.920Z,86.91
2016-11-20T11:46:27.901Z,86.15
2016-11-20T11:47:27.886Z,86.34
2016-11-20T11:48:27.871Z,86.24
2016-11-20T11:49:27.893Z,85.29
2016-11-20T11:50:27.849Z,84.81
2016-11-20T11:51:27.831Z,84.52
2016-11-20T11:52:27.820Z,84.05
2016-11-20T11:53:27.812Z,84.19
2016-11-20T11:54:27.795Z,84.28
2016-11-20T11:55:27.782Z,83.23
2016-11-20T11:56:27.770Z,83.33
2016-11-20T11:57:27.759Z,84.28
2016-11-20T11:58:27.754Z,83.7
2016-11-20T11:59:27.737Z,83.99
2016-11-20T12:00:27.727Z,84.28
2016-11-20T12:01:27.710Z,84.09
2016-11-20T12:02:27.699Z,83.42
2016-11-20T12:03:27.685Z,83.33
2016-11-20T12:04:27.675Z,83.33
2016-11-20T12:05:27.662Z,83.33
2016-11-20T12:06:27.653Z,83.04
2016-11-20T12:07:27.640Z,83.51
2016-11-20T12:08:27.629Z,82.94
2016-11-20T12:09:27.615Z,83.8
2016-11-20T12:10:27.604Z,83.13
2016-11-20T12:11:27.603Z,83.23
2016-11-20T12:12:27.579Z,83.9
2016-11-20T12:13:27.572Z,83.33
2016-11-20T12:14:27.555Z,83.8
2016-11-20T12:15:27.548Z,83.9
2016-11-20T12:16:27.529Z,83.51
2016-11-20T12:17:27.515Z,83.61
2016-11-20T12:18:27.510Z,83.61
2016-11-20T12:19:27.493Z,83.42
2016-11-20T12:20:27.808Z,83.8
2016-11-20T12:21:27.466Z,83.94
2016-11-20T12:22:27.455Z,83.9
2016-11-20T12:23:27.470Z,83.42
2016-11-20T12:24:27.430Z,83.84
2016-11-20T12:25:27.419Z,83.51
2016-11-20T12:26:27.405Z,83.56
2016-11-20T12:27:27.390Z,83.9
2016-11-20T12:28:27.378Z,83.99
2016-11-20T12:29:27.364Z,83.94
2016-11-20T12:30:27.354Z,83.84
2016-11-20T12:31:27.342Z,84.13
2016-11-20T12:32:27.641Z,84.23
2016-11-20T12:33:27.314Z,83.84
2016-11-20T12:34:27.301Z,84.89
2016-11-20T12:35:27.289Z,84.8
2016-11-20T12:36:27.277Z,85.38
2016-11-20T12:37:27.264Z,85.05
2016-11-20T12:38:27.511Z,84.8
2016-11-20T12:39:27.238Z,85.33
2016-11-20T12:40:27.227Z,85.28
2016-11-20T12:41:27.214Z,85.09
2016-11-20T12:42:27.200Z,84.32
2016-11-20T12:43:27.189Z,84.99
2016-11-20T12:44:27.175Z,84.52
2016-11-20T12:45:27.161Z,83.84
2016-11-20T12:46:27.460Z,83.94
2016-11-20T12:47:27.137Z,84.52
2016-11-20T12:48:27.136Z,84.32
2016-11-20T12:49:27.115Z,83.94
2016-11-20T12:50:27.097Z,84.23
2016-11-20T12:51:27.089Z,85.09
2016-11-20T12:52:27.075Z,84.7
2016-11-20T12:53:27.062Z,85.28